Time;durP1;ratioP1;P1;durP2;ratioP2;P2;SDS_P1;SDS_P2;PMS_P1;PMS_P2;Temp;Humidity;BMP_temperature;BMP_pressure;BME280_temperature;BME280_humidity;BME280_pressure;Samples;Min_cycle;Max_cycle;Signal;HPM_P1;HPM_P2
2023/01/20 00:02:26;;;;;;;2.50;2.30;;;0.10;99.90;0.90;95831.00;;;;5031183;28;20440;-67
2023/01/20 00:05:16;;;;;;;2.07;1.87;;;-0.10;99.90;0.70;95839.00;;;;5031788;28;20456;-68
2023/01/20 00:08:05;;;;;;;4.67;2.27;;;-0.20;99.90;0.70;95838.00;;;;5031464;28;20526;-69
2023/01/20 00:10:55;;;;;;;3.23;2.10;;;-0.20;99.90;0.70;95847.00;;;;5041378;28;20917;-67
2023/01/20 00:13:43;;;;;;;2.17;1.90;;;-0.10;99.90;0.70;95861.00;;;;5032383;28;20461;-68
2023/01/20 00:16:32;;;;;;;2.43;2.10;;;-0.30;99.90;0.60;95854.00;;;;5034461;28;20440;-67
2023/01/20 00:19:21;;;;;;;2.93;1.97;;;-0.30;99.90;0.50;95873.00;;;;5028657;28;20424;-66
2023/01/20 00:22:11;;;;;;;2.80;2.10;;;-0.30;99.90;0.20;95857.00;;;;5031734;28;20428;-67
2023/01/20 00:24:59;;;;;;;2.07;1.87;;;-0.40;99.90;-0.10;95869.00;;;;5030692;28;20892;-69
2023/01/20 00:27:48;;;;;;;9.47;4.00;;;-0.40;99.90;0.00;95868.00;;;;5029771;28;21076;-68
2023/01/20 00:30:37;;;;;;;7.33;3.67;;;-0.50;99.90;0.10;95866.00;;;;5038182;28;20419;-67
2023/01/20 00:33:25;;;;;;;10.90;3.67;;;-0.50;99.90;0.10;95879.00;;;;5022249;28;20440;-68
2023/01/20 00:36:16;;;;;;;3.97;2.93;;;-0.50;99.90;0.30;95890.00;;;;5034084;28;20503;-68
2023/01/20 00:39:07;;;;;;;9.00;3.13;;;-0.40;99.90;0.20;95896.00;;;;5027280;28;20447;-67
2023/01/20 00:41:55;;;;;;;4.40;2.97;;;-0.40;99.90;0.30;95900.00;;;;5023720;28;20931;-67
2023/01/20 00:44:44;;;;;;;3.17;2.63;;;-0.40;99.90;-0.20;95891.00;;;;5047690;28;20955;-67
2023/01/20 00:47:32;;;;;;;6.03;3.17;;;-0.50;99.90;0.20;95904.00;;;;5047383;28;21010;-67
2023/01/20 00:50:21;;;;;;;3.50;2.33;;;1.40;99.90;0.30;95916.00;;;;5029257;28;20424;-66
2023/01/20 00:53:10;;;;;;;4.27;3.20;;;-0.60;99.90;0.50;95916.00;;;;5026629;28;20432;-68
2023/01/20 00:56:00;;;;;;;4.37;2.83;;;-0.50;99.90;0.60;95921.00;;;;5031901;28;20448;-67
2023/01/20 00:58:49;;;;;;;3.40;2.60;;;-0.40;99.90;0.40;95919.00;;;;5026713;28;20428;-67
2023/01/20 01:01:38;;;;;;;2.37;2.13;;;-0.40;99.90;0.50;95922.00;;;;5029170;28;20845;-67
2023/01/20 01:04:26;;;;;;;2.97;2.60;;;-0.40;99.90;0.50;95929.00;;;;5028731;28;20428;-68
2023/01/20 01:07:15;;;;;;;2.80;2.17;;;-0.40;99.90;0.40;95922.00;;;;5028270;28;20923;-67
2023/01/20 01:10:05;;;;;;;2.00;1.90;;;-0.40;99.90;0.50;95918.00;;;;5025912;28;20963;-68
2023/01/20 01:12:55;;;;;;;1.50;1.10;;;-0.40;99.90;0.20;95904.00;;;;5022206;28;20978;-67
2023/01/20 01:15:49;;;;;;;2.67;2.13;;;-0.40;99.90;0.20;95901.00;;;;5030244;28;20436;-68
2023/01/20 01:18:38;;;;;;;4.07;2.17;;;-0.40;99.90;0.50;95894.00;;;;5028073;28;20435;-67
2023/01/20 01:21:27;;;;;;;2.53;1.80;;;-0.40;99.90;0.50;95905.00;;;;5029958;28;20420;-66
2023/01/20 01:24:15;;;;;;;3.67;2.00;;;-0.40;99.90;0.50;95899.00;;;;5028389;28;20488;-68
2023/01/20 01:27:04;;;;;;;3.07;2.77;;;-0.40;99.90;0.40;95899.00;;;;5029268;28;20447;-66
2023/01/20 01:29:54;;;;;;;3.00;1.87;;;-0.40;99.90;0.40;95897.00;;;;5028670;28;20853;-68
2023/01/20 01:32:43;;;;;;;3.97;2.60;;;-0.40;99.90;0.50;95893.00;;;;5038302;28;20433;-68
2023/01/20 01:35:31;;;;;;;4.73;3.07;;;-0.40;99.90;0.50;95896.00;;;;5038710;28;20540;-68
2023/01/20 01:38:20;;;;;;;3.10;2.80;;;-0.50;99.90;0.50;95886.00;;;;5025553;28;20427;-68
2023/01/20 01:41:11;;;;;;;2.27;2.07;;;-0.50;99.90;0.40;95900.00;;;;5028029;28;20930;-68
2023/01/20 01:44:08;;;;;;;3.03;2.73;;;-0.50;99.90;0.30;95905.00;;;;5028728;28;20429;-68
2023/01/20 01:46:58;;;;;;;2.47;2.30;;;-0.50;99.90;0.20;95896.00;;;;5032025;28;20448;-67
2023/01/20 01:49:46;;;;;;;2.93;2.37;;;-0.50;99.90;0.30;95909.00;;;;5028998;28;20497;-68
2023/01/20 01:52:35;;;;;;;2.60;2.40;;;-0.50;99.90;0.50;95914.00;;;;5027463;28;20427;-68
2023/01/20 01:55:29;;;;;;;4.47;2.50;;;-0.50;99.90;0.60;95904.00;;;;5029756;28;20531;-68
2023/01/20 01:58:21;;;;;;;4.13;2.73;;;-0.40;99.90;0.50;95905.00;;;;5037768;28;20518;-68
2023/01/20 02:01:11;;;;;;;4.23;2.30;;;-0.50;99.90;0.50;95908.00;;;;5017587;28;20770;-68
2023/01/20 02:04:05;;;;;;;2.87;2.30;;;-0.40;99.90;0.60;95898.00;;;;5027681;28;20435;-68
2023/01/20 02:06:59;;;;;;;2.57;2.17;;;-0.40;99.90;0.60;95903.00;;;;5028261;28;20436;-68
2023/01/20 02:09:47;;;;;;;3.07;2.17;;;-0.40;99.90;0.60;95898.00;;;;5028807;28;20509;-67
2023/01/20 02:12:36;;;;;;;4.33;2.07;;;-0.40;99.90;0.40;95902.00;;;;5028449;28;20436;-68
2023/01/20 02:15:30;;;;;;;4.30;2.73;;;-0.50;99.90;0.50;95902.00;;;;5029431;28;20531;-68
2023/01/20 02:18:44;;;;;;;6.00;2.13;;;-0.50;99.90;0.50;95909.00;;;;5028447;28;20786;-68
2023/01/20 02:22:14;;;;;;;3.40;2.33;;;-0.50;99.90;0.40;95901.00;;;;5023378;28;21071;-67
2023/01/20 02:25:50;;;;;;;3.13;2.37;;;-0.50;99.90;0.10;95893.00;;;;4966989;28;20919;-68
2023/01/20 02:29:23;;;;;;;3.20;1.97;;;-0.60;99.90;0.10;95895.00;;;;5028133;28;20460;-68
2023/01/20 02:32:27;;;;;;;3.43;2.70;;;-0.70;99.90;0.00;95899.00;;;;5027882;28;20927;-68
2023/01/20 02:35:24;;;;;;;1.73;1.60;;;-0.70;99.90;0.00;95887.00;;;;5028615;28;20836;-68
2023/01/20 02:38:25;;;;;;;4.10;1.80;;;-0.80;99.90;0.20;95900.00;;;;5028759;28;20427;-67
2023/01/20 02:41:21;;;;;;;3.37;1.93;;;-0.10;99.90;0.20;95894.00;;;;5030649;28;20464;-68
2023/01/20 02:44:18;;;;;;;3.53;2.17;;;-0.70;99.90;0.00;95894.00;;;;5031866;28;20428;-68
2023/01/20 02:47:15;;;;;;;3.30;2.43;;;-0.80;99.90;0.00;95890.00;;;;5032060;28;20490;-68
2023/01/20 02:50:10;;;;;;;2.90;2.60;;;-0.80;99.90;0.10;95895.00;;;;5038631;28;20435;-68
2023/01/20 02:53:01;;;;;;;2.10;2.00;;;-0.80;99.90;0.10;95892.00;;;;5033354;28;20493;-68
2023/01/20 02:55:53;;;;;;;6.10;2.27;;;-0.80;99.90;0.00;95883.00;;;;5031852;28;20908;-68
2023/01/20 02:58:47;;;;;;;2.37;1.90;;;-0.90;99.90;0.00;95888.00;;;;5030858;28;20436;-68
2023/01/20 03:01:41;;;;;;;2.40;1.90;;;-0.90;99.90;-0.10;95882.00;;;;5023601;28;20423;-69
2023/01/20 03:04:37;;;;;;;1.97;1.87;;;-0.90;99.90;-0.10;95886.00;;;;5032551;28;20895;-68
2023/01/20 03:07:29;;;;;;;4.03;1.90;;;-1.00;99.90;0.00;95887.00;;;;5030604;28;20420;-69
2023/01/20 03:10:22;;;;;;;5.10;2.20;;;-3.10;99.90;0.00;95893.00;;;;5039013;28;20439;-68
2023/01/20 03:13:16;;;;;;;2.10;2.00;;;-1.00;99.90;-0.50;95886.00;;;;5037018;28;20478;-69
2023/01/20 03:16:09;;;;;;;2.67;2.30;;;-1.00;99.90;-0.20;95892.00;;;;5032560;28;20447;-68
2023/01/20 03:18:58;;;;;;;2.33;1.80;;;-1.10;99.90;-0.10;95894.00;;;;5031259;28;20482;-69
2023/01/20 03:21:49;;;;;;;3.87;2.63;;;-1.00;99.90;-0.10;95893.00;;;;5031023;28;20463;-69
2023/01/20 03:24:38;;;;;;;3.10;2.27;;;-1.10;99.90;-0.50;95883.00;;;;5032678;28;20439;-69
2023/01/20 03:27:27;;;;;;;2.60;2.40;;;-1.10;99.90;-0.60;95879.00;;;;5031587;28;20545;-69
2023/01/20 03:30:18;;;;;;;2.30;2.20;;;-1.20;99.90;-0.50;95887.00;;;;5031389;28;20443;-69
2023/01/20 03:33:07;;;;;;;2.50;2.30;;;-1.20;99.90;-0.30;95889.00;;;;5030936;28;20459;-69
2023/01/20 03:35:56;;;;;;;2.67;2.47;;;-1.10;99.90;-0.20;95890.00;;;;5030840;28;20452;-69
2023/01/20 03:38:47;;;;;;;4.13;2.27;;;-1.20;99.90;-0.20;95882.00;;;;5028592;28;20931;-69
2023/01/20 03:41:49;;;;;;;2.47;2.27;;;-1.20;99.90;-0.20;95895.00;;;;5033146;28;20423;-70
2023/01/20 03:45:01;;;;;;;2.33;2.13;;;-1.20;99.90;-0.50;95890.00;;;;5031761;28;20426;-69
2023/01/20 03:47:57;;;;;;;7.93;2.27;;;-1.20;99.90;-0.60;95882.00;;;;5025896;28;20428;-69
2023/01/20 03:50:54;;;;;;;2.53;2.33;;;-1.30;99.90;-0.50;95889.00;;;;5028593;28;20429;-69
2023/01/20 03:53:52;;;;;;;6.07;2.50;;;-1.30;99.90;-0.60;95894.00;;;;5034901;28;20422;-69
2023/01/20 03:56:47;;;;;;;1.93;1.63;;;-1.30;99.90;-0.50;95888.00;;;;5019578;28;20447;-69
2023/01/20 03:59:40;;;;;;;2.83;2.23;;;-1.30;99.90;-0.40;95887.00;;;;5029638;28;20447;-69
2023/01/20 04:02:29;;;;;;;3.13;1.83;;;-1.30;99.90;-0.60;95891.00;;;;5029963;28;20514;-69
2023/01/20 04:05:18;;;;;;;1.77;1.67;;;-1.30;99.90;-0.40;95902.00;;;;5030380;28;20994;-70
2023/01/20 04:08:10;;;;;;;2.93;1.97;;;-1.30;99.90;-0.50;95889.00;;;;5030454;28;20432;-69
2023/01/20 04:11:01;;;;;;;2.57;2.33;;;-1.30;99.90;-0.40;95909.00;;;;5031532;28;20428;-70
2023/01/20 04:13:50;;;;;;;2.20;1.77;;;-1.20;99.90;-0.60;95908.00;;;;5027244;28;20424;-69
2023/01/20 04:16:39;;;;;;;1.70;0.93;;;-1.20;99.90;-0.60;95898.00;;;;5050043;28;20443;-69
2023/01/20 04:19:28;;;;;;;3.13;2.53;;;-1.20;99.90;-0.40;95908.00;;;;5050173;28;20430;-69
2023/01/20 04:22:24;;;;;;;5.63;1.53;;;-1.20;99.90;-0.10;95909.00;;;;5049695;28;20427;-69
2023/01/20 04:25:29;;;;;;;2.37;2.17;;;-1.10;99.90;-0.10;95912.00;;;;5047645;28;20516;-69
2023/01/20 04:28:19;;;;;;;2.00;1.90;;;-1.10;99.90;0.00;95913.00;;;;5047945;28;20439;-68
2023/01/20 04:31:07;;;;;;;2.03;1.83;;;-1.00;99.90;0.10;95916.00;;;;5029497;28;20438;-69
2023/01/20 04:34:11;;;;;;;2.33;2.10;;;-1.00;99.90;0.10;95934.00;;;;5029590;28;20433;-69
2023/01/20 04:36:59;;;;;;;1.43;1.33;;;-0.90;99.90;-0.10;95932.00;;;;5018043;28;20893;-68
2023/01/20 04:39:48;;;;;;;9.43;2.37;;;-0.90;99.90;0.00;95942.00;;;;5031082;28;20955;-69
2023/01/20 04:42:37;;;;;;;1.37;1.27;;;-0.90;99.90;-0.10;95944.00;;;;5030278;28;20420;-69
2023/01/20 04:45:27;;;;;;;4.43;1.90;;;-0.80;99.90;0.20;95956.00;;;;5029395;28;20476;-69
2023/01/20 04:48:16;;;;;;;2.70;2.50;;;-0.80;99.90;0.30;95948.00;;;;5028974;28;20514;-69
2023/01/20 04:51:06;;;;;;;2.10;2.00;;;-0.80;99.90;0.30;95959.00;;;;5030269;28;20432;-70
2023/01/20 04:53:57;;;;;;;1.70;1.57;;;-0.80;99.90;0.30;95956.00;;;;5028797;28;20510;-69
2023/01/20 04:56:47;;;;;;;1.70;1.60;;;-0.80;99.90;0.10;95962.00;;;;5019396;28;20441;-69
2023/01/20 04:59:36;;;;;;;5.57;4.63;;;-0.80;99.90;0.20;95970.00;;;;5027517;28;20424;-70
2023/01/20 05:02:26;;;;;;;3.70;2.97;;;-0.70;99.90;0.00;95976.00;;;;5029580;28;20782;-69
2023/01/20 05:05:15;;;;;;;5.87;2.00;;;-0.80;99.90;0.20;95983.00;;;;5031353;28;20448;-69
2023/01/20 05:08:05;;;;;;;4.13;3.17;;;-0.70;99.90;0.30;95980.00;;;;5029634;28;20434;-69
2023/01/20 05:10:53;;;;;;;3.10;2.17;;;-0.70;99.90;0.40;95981.00;;;;5034078;28;20505;-71
2023/01/20 05:13:42;;;;;;;2.10;1.90;;;-0.70;99.90;0.20;95985.00;;;;5039784;28;20423;-70
2023/01/20 05:16:32;;;;;;;3.90;2.97;;;-0.70;99.90;0.30;95996.00;;;;5020058;28;20993;-70
2023/01/20 05:19:22;;;;;;;3.03;2.53;;;-0.70;99.90;0.20;96003.00;;;;5037050;28;20425;-70
2023/01/20 05:22:11;;;;;;;2.87;2.57;;;-0.70;99.90;0.30;96004.00;;;;5026516;28;20424;-70
2023/01/20 05:25:00;;;;;;;2.63;1.77;;;-0.70;99.90;0.20;95999.00;;;;5028534;28;20420;-70
2023/01/20 05:27:49;;;;;;;4.57;2.70;;;-0.70;99.90;0.50;96006.00;;;;5026956;28;20943;-70
2023/01/20 05:30:38;;;;;;;3.60;2.33;;;-0.60;99.90;0.40;96006.00;;;;5017358;28;20466;-70
2023/01/20 05:33:26;;;;;;;2.37;2.17;;;-0.70;99.90;0.50;96012.00;;;;5029929;28;20432;-70
2023/01/20 05:36:16;;;;;;;3.93;2.37;;;-0.60;99.90;0.60;96002.00;;;;5023481;28;20444;-70
2023/01/20 05:39:05;;;;;;;2.30;1.50;;;-0.60;99.90;0.20;95995.00;;;;5024472;28;20435;-72
2023/01/20 05:41:54;;;;;;;2.93;2.13;;;-0.50;99.90;0.40;95987.00;;;;5027942;28;21052;-72
2023/01/20 05:44:43;;;;;;;6.20;2.37;;;-0.60;99.90;0.50;95996.00;;;;5025476;28;20428;-70
2023/01/20 05:47:31;;;;;;;5.87;3.20;;;-0.50;99.90;0.60;96004.00;;;;5032680;28;20420;-70
2023/01/20 05:50:20;;;;;;;4.23;2.67;;;-0.50;99.90;0.60;95987.00;;;;5025890;28;20990;-69
2023/01/20 05:53:10;;;;;;;3.33;2.00;;;-0.50;99.90;0.60;95982.00;;;;5048590;28;20841;-69
2023/01/20 05:56:00;;;;;;;3.40;2.53;;;-0.50;99.90;0.60;95984.00;;;;5034575;28;20559;-69
2023/01/20 05:58:49;;;;;;;3.17;2.47;;;-0.50;99.90;0.40;95982.00;;;;5023882;28;20441;-71
2023/01/20 06:01:39;;;;;;;3.57;3.27;;;-0.50;99.90;0.60;95980.00;;;;5040340;28;20420;-70
2023/01/20 06:04:28;;;;;;;4.33;2.87;;;-0.40;99.90;0.70;95979.00;;;;5028390;28;20421;-71
2023/01/20 06:07:16;;;;;;;4.03;3.00;;;-0.40;99.90;0.50;95993.00;;;;5029300;28;20420;-70
2023/01/20 06:10:08;;;;;;;1.30;1.17;;;-0.40;99.90;0.20;95978.00;;;;5030237;28;20880;-70
2023/01/20 06:12:57;;;;;;;2.50;1.93;;;-0.40;99.90;0.40;95975.00;;;;5032780;28;20820;-71
2023/01/20 06:15:51;;;;;;;3.23;2.33;;;-0.40;99.90;0.50;95983.00;;;;5030806;28;20483;-71
2023/01/20 06:18:40;;;;;;;3.00;2.27;;;-0.40;99.90;0.60;95988.00;;;;5031945;28;21175;-71
2023/01/20 06:21:28;;;;;;;10.23;2.97;;;-0.40;99.90;0.60;95986.00;;;;5023909;28;20447;-71
2023/01/20 06:24:17;;;;;;;2.93;2.30;;;-0.40;99.90;0.60;95986.00;;;;5029917;28;20462;-70
2023/01/20 06:27:07;;;;;;;2.23;1.80;;;-0.40;99.90;0.70;95975.00;;;;5024550;28;21006;-70
2023/01/20 06:29:56;;;;;;;12.40;2.87;;;-0.40;99.90;0.70;95980.00;;;;5027970;28;20460;-70
2023/01/20 06:32:47;;;;;;;13.77;3.10;;;-0.40;99.90;0.80;95992.00;;;;5027936;28;20458;-69
2023/01/20 06:35:36;;;;;;;2.93;2.07;;;-0.30;99.90;0.80;95977.00;;;;5032023;28;20545;-68
2023/01/20 06:38:28;;;;;;;3.60;2.40;;;-0.30;99.90;0.80;95977.00;;;;5031953;28;20950;-70
2023/01/20 06:41:18;;;;;;;3.23;2.33;;;-0.30;99.90;0.60;95975.00;;;;5038193;28;20462;-70
2023/01/20 06:44:08;;;;;;;3.97;2.83;;;-0.40;99.90;0.60;95970.00;;;;5034400;28;20435;-70
2023/01/20 06:46:57;;;;;;;2.17;2.00;;;-0.30;99.90;0.60;95970.00;;;;5031705;28;20456;-69
2023/01/20 06:49:45;;;;;;;2.73;2.00;;;-0.40;99.90;0.70;95971.00;;;;5032713;28;20460;-69
2023/01/20 06:52:34;;;;;;;3.10;2.20;;;-0.40;99.90;0.70;95975.00;;;;5030028;28;20506;-68
2023/01/20 06:55:22;;;;;;;6.13;2.80;;;-0.30;99.90;0.70;95983.00;;;;5037587;28;20538;-68
2023/01/20 06:58:11;;;;;;;3.77;2.33;;;-0.30;99.90;0.70;95959.00;;;;5022623;28;20436;-68
2023/01/20 07:01:08;;;;;;;3.57;2.30;;;-0.30;99.90;0.70;95970.00;;;;5032057;28;20827;-69
2023/01/20 07:03:57;;;;;;;2.57;2.20;;;-0.40;99.90;0.70;95964.00;;;;5026795;28;20426;-69
2023/01/20 07:06:46;;;;;;;3.73;3.27;;;-0.30;99.90;0.70;95960.00;;;;5031845;28;20448;-69
2023/01/20 07:09:35;;;;;;;4.03;3.20;;;-0.30;99.90;0.80;95966.00;;;;5030973;28;20432;-69
2023/01/20 07:12:23;;;;;;;4.53;3.00;;;-0.30;99.90;0.80;95976.00;;;;5036043;28;20932;-69
2023/01/20 07:15:12;;;;;;;4.40;3.30;;;-0.30;99.90;0.80;95961.00;;;;5040661;28;20440;-69
2023/01/20 07:18:02;;;;;;;6.70;3.30;;;-0.30;99.90;0.80;95972.00;;;;5033157;28;20466;-68
2023/01/20 07:20:54;;;;;;;6.60;2.53;;;-0.30;99.90;0.70;95973.00;;;;5038446;28;20848;-69
2023/01/20 07:23:43;;;;;;;5.50;2.80;;;-0.30;99.90;0.90;95985.00;;;;5028089;28;20479;-69
2023/01/20 07:26:32;;;;;;;3.07;2.77;;;-0.30;99.90;0.90;95988.00;;;;5031014;28;21017;-68
2023/01/20 07:29:21;;;;;;;2.20;2.00;;;-0.20;99.90;0.90;95996.00;;;;5031707;28;20432;-68
2023/01/20 07:32:10;;;;;;;3.23;1.67;;;-0.20;99.90;0.90;95988.00;;;;5031034;28;20484;-68
2023/01/20 07:35:00;;;;;;;1.80;1.47;;;-0.20;99.90;0.90;96003.00;;;;5031422;28;20499;-68
2023/01/20 07:37:48;;;;;;;2.47;1.77;;;-0.20;99.90;0.70;95991.00;;;;5037109;28;20552;-70
2023/01/20 07:40:37;;;;;;;3.03;2.00;;;-0.20;99.90;1.00;96000.00;;;;5031028;28;20436;-70
2023/01/20 07:43:26;;;;;;;3.63;1.93;;;-0.20;99.90;1.10;96009.00;;;;5030599;28;20489;-69
2023/01/20 07:46:15;;;;;;;2.30;1.80;;;-0.10;99.90;0.90;96004.00;;;;5031272;28;20460;-69
2023/01/20 07:49:03;;;;;;;3.60;2.10;;;-0.10;99.90;1.10;96008.00;;;;5029868;28;20421;-70
2023/01/20 07:51:53;;;;;;;3.23;1.87;;;-0.10;99.90;1.20;96014.00;;;;5029004;28;20492;-69
2023/01/20 07:54:42;;;;;;;1.10;1.00;;;0.00;99.90;0.90;96008.00;;;;5026816;28;20478;-70
2023/01/20 07:57:31;;;;;;;1.40;1.37;;;0.00;99.90;1.20;96010.00;;;;5034808;28;20436;-70
2023/01/20 08:00:20;;;;;;;1.60;1.50;;;0.00;99.90;0.90;96000.00;;;;5029876;28;20429;-72
2023/01/20 08:03:09;;;;;;;2.43;1.80;;;0.10;99.90;1.10;95997.00;;;;5017683;28;20420;-71
2023/01/20 08:05:58;;;;;;;5.20;2.07;;;0.10;99.90;1.20;95993.00;;;;5029874;28;20444;-69
2023/01/20 08:08:48;;;;;;;2.33;1.77;;;0.10;99.90;1.30;96014.00;;;;5031309;28;20852;-70
2023/01/20 08:11:36;;;;;;;2.27;1.93;;;0.20;99.90;1.60;96020.00;;;;5027107;28;20502;-70
2023/01/20 08:14:25;;;;;;;1.97;1.73;;;0.30;99.90;1.60;96019.00;;;;5037052;28;20420;-70
2023/01/20 08:17:14;;;;;;;1.63;1.53;;;0.30;99.90;1.80;96032.00;;;;5042966;28;20423;-69
2023/01/20 08:20:03;;;;;;;2.63;2.23;;;0.40;99.90;1.80;96038.00;;;;5030804;28;20420;-70
2023/01/20 08:22:52;;;;;;;1.97;1.60;;;0.50;99.90;1.80;96044.00;;;;5030925;28;20436;-70
2023/01/20 08:25:42;;;;;;;2.30;2.10;;;0.50;99.90;1.80;96050.00;;;;5030744;28;20970;-69
2023/01/20 08:28:32;;;;;;;3.17;2.17;;;0.60;99.90;1.90;96051.00;;;;5031205;28;20439;-69
2023/01/20 08:31:24;;;;;;;1.80;1.63;;;0.60;99.90;1.80;96052.00;;;;5030275;28;21379;-71
2023/01/20 08:34:13;;;;;;;2.57;2.10;;;0.70;99.90;2.10;96065.00;;;;5031901;28;20435;-70
2023/01/20 08:37:02;;;;;;;4.17;3.40;;;0.70;99.90;2.00;96052.00;;;;5019531;28;20456;-69
2023/01/20 08:39:50;;;;;;;4.27;2.30;;;0.70;99.90;2.00;96052.00;;;;5041366;28;20433;-70
2023/01/20 08:42:40;;;;;;;1.97;1.63;;;0.80;99.90;2.20;96048.00;;;;5030168;28;20460;-70
2023/01/20 08:45:29;;;;;;;2.93;2.00;;;0.80;99.90;2.20;96056.00;;;;5028630;28;20841;-70
2023/01/20 08:48:18;;;;;;;2.97;1.93;;;0.90;99.90;2.20;96058.00;;;;5029494;28;20521;-71
2023/01/20 08:51:12;;;;;;;3.33;1.63;;;0.90;99.90;2.20;96063.00;;;;5037005;28;20464;-71
2023/01/20 08:54:02;;;;;;;1.80;1.70;;;0.90;99.90;2.30;96072.00;;;;5029448;28;20425;-70
2023/01/20 08:56:52;;;;;;;4.00;2.30;;;1.00;99.90;2.30;96065.00;;;;5029533;28;20463;-70
2023/01/20 08:59:43;;;;;;;2.30;1.80;;;1.00;99.90;2.40;96068.00;;;;5029736;28;20421;-70
2023/01/20 09:02:31;;;;;;;3.77;2.80;;;1.10;99.90;2.50;96081.00;;;;5020718;28;20486;-69
2023/01/20 09:05:21;;;;;;;2.07;1.87;;;1.10;99.90;2.40;96072.00;;;;5029944;28;20440;-69
2023/01/20 09:08:09;;;;;;;1.83;1.60;;;1.20;99.90;2.40;96079.00;;;;5029585;28;20517;-70
2023/01/20 09:11:03;;;;;;;1.80;1.70;;;1.10;99.90;2.40;96081.00;;;;5030409;28;21225;-70
2023/01/20 09:13:54;;;;;;;2.10;1.63;;;1.20;99.90;2.50;96072.00;;;;5043454;28;20435;-70
2023/01/20 09:16:44;;;;;;;1.97;1.40;;;1.20;99.90;2.50;96087.00;;;;5043322;28;20976;-69
2023/01/20 09:19:32;;;;;;;3.47;2.00;;;1.20;99.90;2.50;96089.00;;;;5040058;28;20486;-69
2023/01/20 09:22:21;;;;;;;7.13;2.23;;;1.20;99.90;2.60;96081.00;;;;5035761;28;20427;-68
2023/01/20 09:25:11;;;;;;;2.07;1.60;;;1.30;99.90;2.60;96077.00;;;;5026802;28;20455;-69
2023/01/20 09:28:01;;;;;;;2.33;1.60;;;1.40;99.90;2.80;96075.00;;;;5036899;28;20428;-69
2023/01/20 09:30:50;;;;;;;4.73;1.83;;;1.30;99.90;2.70;96066.00;;;;5024014;28;20425;-69
2023/01/20 09:33:40;;;;;;;2.27;1.73;;;1.40;99.90;2.90;96069.00;;;;5031113;28;20412;-69
2023/01/20 09:36:29;;;;;;;2.53;2.37;;;1.40;99.90;2.90;96078.00;;;;5029263;28;20466;-67
2023/01/20 09:45:51;;;;;;;3.97;2.10;;;1.60;99.90;3.00;96075.00;;;;5027200;28;20490;-68
2023/01/20 09:55:26;;;;;;;5.70;1.93;;;1.80;99.90;3.30;96064.00;;;;5026166;28;20972;-69
2023/01/20 09:58:25;;;;;;;1.90;1.80;;;1.80;99.90;2.90;96059.00;;;;5028658;28;20433;-68
2023/01/20 10:01:23;;;;;;;4.77;2.63;;;1.80;99.90;3.10;96062.00;;;;5028071;28;20427;-69
2023/01/20 10:04:19;;;;;;;4.43;1.87;;;1.80;99.90;2.80;96062.00;;;;5041773;28;20925;-69
2023/01/20 10:07:14;;;;;;;3.30;2.50;;;1.90;99.90;2.90;96056.00;;;;5031126;28;20555;-69
2023/01/20 10:10:14;;;;;;;2.50;2.30;;;1.90;99.90;3.20;96058.00;;;;5032900;28;20427;-69
2023/01/20 10:13:09;;;;;;;4.03;1.97;;;1.90;99.90;3.00;96060.00;;;;5028900;28;20500;-70
2023/01/20 10:16:05;;;;;;;4.43;2.93;;;1.90;99.90;3.10;96044.00;;;;5028839;28;20506;-70
2023/01/20 10:19:00;;;;;;;4.40;2.03;;;1.90;99.90;3.20;96055.00;;;;5023793;28;20444;-70
2023/01/20 10:21:56;;;;;;;2.77;2.40;;;1.90;99.90;3.20;96048.00;;;;5028796;28;20455;-69
2023/01/20 10:24:51;;;;;;;3.00;1.93;;;1.90;99.90;3.30;96055.00;;;;5027339;28;20491;-68
2023/01/20 10:27:50;;;;;;;2.83;2.63;;;1.90;99.90;3.30;96061.00;;;;5036691;28;20416;-69
2023/01/20 10:30:39;;;;;;;3.17;2.73;;;2.00;99.90;3.30;96056.00;;;;5039967;28;20420;-70
2023/01/20 10:33:32;;;;;;;3.30;2.43;;;1.90;99.90;3.10;96050.00;;;;5015359;28;20579;-68
2023/01/20 10:36:27;;;;;;;4.27;2.63;;;2.00;99.90;3.30;96061.00;;;;5025389;28;20460;-68
2023/01/20 10:39:28;;;;;;;2.63;2.17;;;2.00;99.90;3.20;96040.00;;;;5027692;28;20512;-69
2023/01/20 10:42:18;;;;;;;2.67;2.20;;;2.00;99.90;3.10;96046.00;;;;5027919;28;20443;-67
2023/01/20 10:45:18;;;;;;;5.20;3.37;;;1.90;99.90;3.20;96043.00;;;;5033906;28;20444;-67
2023/01/20 10:48:23;;;;;;;3.83;2.03;;;1.90;99.90;3.20;96036.00;;;;5015604;28;20951;-68
2023/01/20 10:51:20;;;;;;;3.67;2.50;;;1.90;99.90;3.30;96040.00;;;;5035346;28;20439;-68
2023/01/20 10:54:24;;;;;;;3.30;2.40;;;1.90;99.90;3.30;96045.00;;;;5028277;28;20876;-68
2023/01/20 10:57:15;;;;;;;2.40;2.20;;;2.10;99.90;3.30;96043.00;;;;5042949;28;20419;-67
2023/01/20 11:00:13;;;;;;;7.13;2.67;;;2.00;99.90;3.30;96047.00;;;;5048152;28;20427;-67
2023/01/20 11:03:04;;;;;;;3.67;2.53;;;2.00;99.90;3.50;96053.00;;;;5033957;28;20835;-69
2023/01/20 11:05:53;;;;;;;4.03;1.90;;;2.10;99.90;3.20;96045.00;;;;5032564;28;20455;-68
2023/01/20 11:08:42;;;;;;;1.83;1.73;;;2.10;99.90;3.10;96046.00;;;;5031530;28;20436;-68
2023/01/20 11:11:33;;;;;;;13.97;7.03;;;2.00;99.90;3.50;96047.00;;;;5028208;28;20527;-68
2023/01/20 11:14:22;;;;;;;7.20;3.80;;;2.10;99.90;3.40;96048.00;;;;5030173;28;20454;-67
2023/01/20 11:17:17;;;;;;;6.07;1.63;;;2.10;99.90;3.30;96049.00;;;;5039720;28;20434;-69
2023/01/20 11:20:13;;;;;;;5.90;3.20;;;2.10;99.90;3.40;96044.00;;;;5027596;28;20417;-68
2023/01/20 11:23:02;;;;;;;3.37;3.07;;;2.10;99.90;3.30;96039.00;;;;5030575;28;20436;-68
2023/01/20 11:25:56;;;;;;;2.17;2.03;;;2.10;99.90;3.50;96054.00;;;;5021514;28;20296;-67
2023/01/20 11:28:52;;;;;;;3.23;2.17;;;2.10;99.90;3.50;96048.00;;;;5012438;28;20801;-68
2023/01/20 11:31:44;;;;;;;2.03;1.73;;;2.20;99.90;3.30;96044.00;;;;5030779;28;21000;-68
2023/01/20 11:34:36;;;;;;;3.47;1.63;;;2.20;99.90;3.30;96040.00;;;;5032197;28;20424;-68
2023/01/20 11:37:26;;;;;;;6.17;2.40;;;2.10;99.90;3.50;96051.00;;;;5030602;28;20432;-67
2023/01/20 11:40:22;;;;;;;2.20;2.00;;;2.20;99.90;3.60;96048.00;;;;5030909;28;20954;-68
2023/01/20 11:43:29;;;;;;;2.53;2.33;;;2.20;99.90;3.60;96058.00;;;;5031586;28;21016;-68
2023/01/20 11:46:29;;;;;;;2.20;2.00;;;2.30;99.90;3.60;96045.00;;;;5030570;28;20228;-69
2023/01/20 11:49:20;;;;;;;6.97;1.70;;;2.30;99.90;3.90;96045.00;;;;5030630;28;20424;-69
2023/01/20 11:52:20;;;;;;;5.37;2.80;;;2.40;99.90;3.70;96048.00;;;;5031437;28;20467;-68
2023/01/20 11:55:13;;;;;;;2.97;2.70;;;2.40;99.60;3.70;96047.00;;;;5030535;28;20440;-69
2023/01/20 11:58:03;;;;;;;2.43;2.33;;;2.50;99.70;3.80;96042.00;;;;5029949;28;20866;-69
2023/01/20 12:01:00;;;;;;;5.43;2.17;;;2.50;99.80;3.90;96047.00;;;;5031098;28;20189;-69
2023/01/20 12:04:45;;;;;;;3.13;2.23;;;2.50;99.70;3.80;96048.00;;;;5043020;28;20215;-68
2023/01/20 12:07:42;;;;;;;3.97;1.70;;;2.50;99.00;3.40;96044.00;;;;5028649;28;20438;-68
2023/01/20 12:10:34;;;;;;;2.67;2.17;;;2.50;99.30;3.00;96054.00;;;;5050247;28;20431;-67
2023/01/20 12:13:28;;;;;;;3.57;1.97;;;3.00;99.00;3.10;96035.00;;;;5032237;28;20221;-68
2023/01/20 12:16:17;;;;;;;2.17;1.77;;;2.30;99.10;3.20;96042.00;;;;5033035;28;20217;-68
2023/01/20 12:19:16;;;;;;;1.60;1.50;;;2.40;98.70;2.20;96030.00;;;;5025944;28;20256;-71
2023/01/20 12:22:13;;;;;;;1.97;1.60;;;2.30;97.70;3.10;96044.00;;;;5028009;28;20932;-67
2023/01/20 12:25:15;;;;;;;2.77;1.97;;;2.10;98.60;3.20;96048.00;;;;5039296;28;20436;-66
2023/01/20 12:28:13;;;;;;;3.37;2.20;;;2.10;98.80;3.10;96029.00;;;;5028841;28;20934;-67
2023/01/20 12:31:04;;;;;;;2.10;1.90;;;2.10;98.80;3.20;96052.00;;;;5026172;28;21013;-67
2023/01/20 12:33:59;;;;;;;2.43;1.87;;;2.20;98.20;3.40;96058.00;;;;5036644;28;20463;-68
2023/01/20 12:37:04;;;;;;;6.03;1.60;;;2.20;98.80;2.70;96045.00;;;;5024391;28;20452;-66
2023/01/20 12:40:22;;;;;;;0.63;0.63;;;2.10;98.10;2.90;96053.00;;;;5029419;28;20428;-68
2023/01/20 12:43:34;;;;;;;7.70;2.20;;;2.10;98.10;3.30;96045.00;;;;5030215;28;20424;-65
2023/01/20 12:46:38;;;;;;;3.27;2.47;;;2.10;98.40;3.20;96049.00;;;;5029250;28;20502;-70
2023/01/20 12:49:51;;;;;;;4.93;3.90;;;2.10;98.70;3.50;96056.00;;;;5046367;28;20886;-68
2023/01/20 12:52:57;;;;;;;2.07;1.83;;;2.20;98.90;2.90;96041.00;;;;5049263;28;20847;-72
2023/01/20 12:55:58;;;;;;;2.63;2.43;;;2.30;98.50;3.10;96051.00;;;;5044084;28;20497;-69
2023/01/20 12:59:00;;;;;;;2.50;1.77;;;2.10;98.70;3.00;96064.00;;;;5023290;28;20436;-69
2023/01/20 13:02:06;;;;;;;2.93;2.23;;;2.20;98.00;3.00;96049.00;;;;5029612;28;20424;-70
2023/01/20 13:05:31;;;;;;;1.47;1.27;;;2.20;98.40;3.10;96040.00;;;;5029243;28;20494;-67
2023/01/20 13:08:24;;;;;;;1.90;1.80;;;2.10;98.90;3.40;96058.00;;;;5029434;28;20424;-72
2023/01/20 13:11:26;;;;;;;2.77;2.10;;;2.10;98.80;3.10;96054.00;;;;5029719;28;20447;-68
2023/01/20 13:14:21;;;;;;;1.57;1.43;;;2.10;98.30;3.20;96055.00;;;;5029577;28;20559;-67